createdAt,value
2022-12-01T00:01:20.937Z,5.50
2022-12-01T00:03:48.240Z,5.50
2022-12-01T00:06:17.990Z,5.50
2022-12-01T00:09:06.244Z,5.50
2022-12-01T00:11:34.631Z,5.50
2022-12-01T00:14:01.831Z,5.50
2022-12-01T00:16:28.721Z,5.40
2022-12-01T00:18:55.665Z,5.40
2022-12-01T00:21:24.569Z,5.50
2022-12-01T00:23:53.714Z,5.50
2022-12-01T00:26:21.846Z,5.50
2022-12-01T00:28:52.704Z,5.50
2022-12-01T00:31:20.534Z,5.50
2022-12-01T00:33:47.753Z,5.50
2022-12-01T00:36:14.701Z,5.50
2022-12-01T00:38:41.609Z,5.50
2022-12-01T00:41:08.815Z,5.50
2022-12-01T00:43:35.762Z,5.50
2022-12-01T00:46:02.813Z,5.50
2022-12-01T00:48:29.895Z,5.50
2022-12-01T00:50:57.099Z,5.50
2022-12-01T00:53:24.771Z,5.50
2022-12-01T00:55:54.097Z,5.40
2022-12-01T00:58:22.044Z,5.40
2022-12-01T01:00:49.523Z,5.40
2022-12-01T01:03:16.429Z,5.40
2022-12-01T01:05:44.222Z,5.40
2022-12-01T01:08:13.267Z,5.40
2022-12-01T01:10:41.626Z,5.40
2022-12-01T01:13:09.165Z,5.40
2022-12-01T01:15:36.481Z,5.40
2022-12-01T01:18:04.183Z,5.40
2022-12-01T01:20:32.305Z,5.40
2022-12-01T01:22:59.634Z,5.40
2022-12-01T01:25:26.726Z,5.40
2022-12-01T01:27:53.908Z,5.40
2022-12-01T01:30:22.088Z,5.40
2022-12-01T01:32:49.287Z,5.40
2022-12-01T01:35:16.200Z,5.40
2022-12-01T01:37:43.093Z,5.40
2022-12-01T01:40:10.796Z,5.40
2022-12-01T01:42:37.690Z,5.40
2022-12-01T01:45:05.462Z,5.40
2022-12-01T01:47:38.229Z,5.40
2022-12-01T01:50:12.951Z,5.40
2022-12-01T01:52:45.149Z,5.40
2022-12-01T01:55:12.957Z,5.40
2022-12-01T01:57:40.774Z,5.40
2022-12-01T02:00:14.113Z,5.40
2022-12-01T02:02:45.902Z,5.40
2022-12-01T02:05:41.283Z,5.50
2022-12-01T02:08:12.530Z,5.50
2022-12-01T02:11:29.522Z,5.40
2022-12-01T02:14:15.296Z,5.40
2022-12-01T02:16:59.504Z,5.40
2022-12-01T02:19:43.868Z,5.40
2022-12-01T02:22:58.603Z,5.40
2022-12-01T02:26:00.976Z,5.40
2022-12-01T02:29:06.574Z,5.40
2022-12-01T02:32:10.224Z,5.40
2022-12-01T02:34:58.853Z,5.40
2022-12-01T02:37:31.957Z,5.40
2022-12-01T02:40:50.974Z,5.40
2022-12-01T02:43:32.260Z,5.40
2022-12-01T02:46:52.830Z,5.40
2022-12-01T02:49:26.852Z,5.40
2022-12-01T02:51:55.355Z,5.40
2022-12-01T02:54:23.768Z,5.40
2022-12-01T02:56:53.042Z,5.40
2022-12-01T02:59:20.016Z,5.40
2022-12-01T03:02:15.537Z,5.40
2022-12-01T03:04:46.727Z,5.40
2022-12-01T03:07:42.747Z,5.40
2022-12-01T03:13:55.339Z,5.40
2022-12-01T03:16:50.288Z,5.40
2022-12-01T03:19:33.993Z,5.40
2022-12-01T03:22:17.368Z,5.40
2022-12-01T03:24:47.589Z,5.40
2022-12-01T03:27:18.717Z,5.40
2022-12-01T03:29:50.668Z,5.30
2022-12-01T03:32:31.992Z,5.30
2022-12-01T03:35:10.884Z,5.30
2022-12-01T03:37:56.370Z,5.30
2022-12-01T03:40:27.379Z,5.30
2022-12-01T03:43:11.273Z,5.30
2022-12-01T03:46:16.000Z,5.30
2022-12-01T03:48:43.360Z,5.20
2022-12-01T03:51:34.967Z,5.20
2022-12-01T03:54:19.500Z,5.20
2022-12-01T03:57:00.444Z,5.20
2022-12-01T03:59:29.155Z,5.20
2022-12-01T04:01:57.390Z,5.20
2022-12-01T04:04:24.453Z,5.20
2022-12-01T04:06:51.423Z,5.20
2022-12-01T04:09:18.540Z,5.20
2022-12-01T04:12:04.041Z,5.20
2022-12-01T04:14:30.987Z,5.20
2022-12-01T04:16:57.888Z,5.10
2022-12-01T04:19:24.926Z,5.20
2022-12-01T04:21:51.798Z,5.10
2022-12-01T04:24:18.790Z,5.10
2022-12-01T04:26:46.223Z,5.10
2022-12-01T04:29:13.684Z,5.10
2022-12-01T04:31:41.198Z,5.10
2022-12-01T04:34:09.975Z,5.10
2022-12-01T04:36:36.903Z,5.10
2022-12-01T04:39:04.436Z,5.10
2022-12-01T04:41:31.513Z,5.10
2022-12-01T04:43:58.529Z,5.10
2022-12-01T04:46:26.086Z,5.10
2022-12-01T04:48:53.395Z,5.10
2022-12-01T04:51:21.468Z,5.10
2022-12-01T04:53:49.900Z,5.10
2022-12-01T04:56:16.937Z,5.10
2022-12-01T04:58:44.292Z,5.10
2022-12-01T05:01:13.571Z,5.10
2022-12-01T05:03:42.139Z,5.10
2022-12-01T05:06:13.019Z,5.10
2022-12-01T05:08:40.185Z,5.10
2022-12-01T05:11:08.580Z,5.10
2022-12-01T05:13:37.255Z,5.10
2022-12-01T05:16:09.642Z,5.00
2022-12-01T05:18:36.960Z,5.00
2022-12-01T05:21:05.749Z,5.00
2022-12-01T05:23:35.711Z,5.00
2022-12-01T05:26:05.128Z,5.00
2022-12-01T05:28:32.350Z,5.00
2022-12-01T05:30:59.565Z,5.00
2022-12-01T05:33:27.629Z,5.00
2022-12-01T05:35:54.986Z,5.00
2022-12-01T05:38:22.174Z,4.90
2022-12-01T05:40:54.104Z,5.00
2022-12-01T05:43:28.355Z,5.00
2022-12-01T05:45:56.342Z,5.00
2022-12-01T05:48:23.426Z,4.90
2022-12-01T05:50:50.331Z,4.90
2022-12-01T05:53:18.146Z,4.90
2022-12-01T05:55:45.397Z,4.90
2022-12-01T05:58:12.810Z,4.90
2022-12-01T06:00:45.795Z,4.90
2022-12-01T06:03:13.907Z,4.90
2022-12-01T06:05:41.076Z,4.90
2022-12-01T06:08:08.072Z,4.90
2022-12-01T06:10:35.135Z,4.90
2022-12-01T06:13:04.453Z,4.90
2022-12-01T06:15:31.443Z,4.90
2022-12-01T06:18:01.686Z,4.90
2022-12-01T06:20:28.594Z,4.90
2022-12-01T06:22:55.712Z,4.90
2022-12-01T06:25:22.756Z,4.90
2022-12-01T06:27:49.629Z,4.90
2022-12-01T06:30:16.731Z,4.90
2022-12-01T06:32:46.682Z,4.90
2022-12-01T06:35:13.619Z,4.90
2022-12-01T06:37:40.467Z,4.90
2022-12-01T06:40:08.222Z,4.90
2022-12-01T06:42:35.155Z,4.90
2022-12-01T06:45:02.103Z,4.90
2022-12-01T06:47:29.043Z,4.90
2022-12-01T06:49:55.918Z,4.90
2022-12-01T06:52:22.826Z,4.80
2022-12-01T06:54:49.872Z,4.80
2022-12-01T06:57:17.184Z,4.90
2022-12-01T06:59:44.453Z,4.80
2022-12-01T07:02:12.126Z,4.80
2022-12-01T07:04:39.104Z,4.90
2022-12-01T07:07:06.431Z,4.80
2022-12-01T07:09:33.553Z,4.80
2022-12-01T07:12:00.492Z,4.80
2022-12-01T07:14:28.056Z,4.90
2022-12-01T07:16:55.098Z,4.90
2022-12-01T07:19:22.289Z,4.90
2022-12-01T07:21:49.243Z,4.90
2022-12-01T07:24:16.569Z,4.90
2022-12-01T07:26:44.202Z,4.90
2022-12-01T07:29:11.778Z,4.90
2022-12-01T07:31:39.190Z,4.90
2022-12-01T07:34:06.513Z,4.90
2022-12-01T07:36:33.634Z,4.90
2022-12-01T07:39:04.854Z,4.90
2022-12-01T07:41:31.745Z,4.90
2022-12-01T07:43:58.658Z,4.90
2022-12-01T07:46:27.217Z,4.90
2022-12-01T07:48:55.463Z,4.90
2022-12-01T07:51:23.875Z,4.90
2022-12-01T07:53:52.185Z,5.00
2022-12-01T07:56:20.382Z,4.90
2022-12-01T07:58:47.476Z,4.90
2022-12-01T08:01:20.520Z,4.90
2022-12-01T08:03:55.590Z,4.90
2022-12-01T08:06:23.902Z,4.90
2022-12-01T08:08:51.515Z,5.00
2022-12-01T08:11:26.682Z,4.90
2022-12-01T08:13:54.031Z,5.00
2022-12-01T08:16:24.306Z,5.00
2022-12-01T08:18:51.539Z,5.00
2022-12-01T08:21:20.694Z,5.00
2022-12-01T08:23:48.416Z,5.00
2022-12-01T08:26:18.300Z,5.00
2022-12-01T08:28:46.196Z,5.00
2022-12-01T08:31:31.552Z,5.10
2022-12-01T08:33:59.127Z,5.10
2022-12-01T08:36:26.555Z,5.10
2022-12-01T08:38:55.547Z,5.10
2022-12-01T08:41:24.419Z,5.20
2022-12-01T08:43:59.630Z,5.20
2022-12-01T08:46:34.250Z,5.20
2022-12-01T08:49:02.555Z,5.20
2022-12-01T08:51:29.859Z,5.20
2022-12-01T08:53:58.082Z,5.20
2022-12-01T08:56:31.987Z,5.20
2022-12-01T08:58:58.950Z,5.20
2022-12-01T09:01:26.674Z,5.20
2022-12-01T09:04:06.184Z,5.20
2022-12-01T09:06:37.665Z,5.20
2022-12-01T09:09:05.036Z,5.20
2022-12-01T09:11:32.190Z,5.20
2022-12-01T09:13:59.968Z,5.20
2022-12-01T09:16:27.122Z,5.20
2022-12-01T09:18:55.262Z,5.20
2022-12-01T09:21:25.035Z,5.30
2022-12-01T09:23:52.033Z,5.40
2022-12-01T09:26:20.048Z,5.50
2022-12-01T09:28:48.699Z,5.50
2022-12-01T09:31:18.492Z,5.60
2022-12-01T09:33:45.770Z,5.60
2022-12-01T09:36:12.708Z,5.60
2022-12-01T09:38:40.104Z,5.50
2022-12-01T09:41:19.321Z,5.50
2022-12-01T09:44:05.891Z,5.50
2022-12-01T09:46:38.200Z,5.50
2022-12-01T09:49:11.590Z,5.60
2022-12-01T09:51:38.499Z,5.70
2022-12-01T09:54:10.485Z,5.70
2022-12-01T09:56:53.102Z,5.80
2022-12-01T09:59:32.120Z,5.70
2022-12-01T10:02:04.239Z,5.70
2022-12-01T10:04:36.397Z,5.80
2022-12-01T10:07:29.710Z,5.70
2022-12-01T10:10:39.461Z,5.70
2022-12-01T10:13:27.094Z,5.70
2022-12-01T10:16:14.198Z,5.70
2022-12-01T10:18:57.548Z,5.80
2022-12-01T10:21:59.722Z,5.80
2022-12-01T10:25:15.653Z,5.80
2022-12-01T10:28:27.179Z,5.80
2022-12-01T10:31:01.992Z,5.70
2022-12-01T10:33:49.028Z,5.70
2022-12-01T10:36:15.977Z,5.70
2022-12-01T10:38:42.879Z,5.70
2022-12-01T10:41:14.735Z,5.70
2022-12-01T10:43:46.555Z,5.70
2022-12-01T10:46:28.313Z,5.60
2022-12-01T10:48:57.680Z,5.70
2022-12-01T10:51:25.571Z,5.90
2022-12-01T10:54:11.511Z,6.10
2022-12-01T10:56:41.800Z,6.20
2022-12-01T10:59:53.257Z,6.20
2022-12-01T11:02:23.186Z,6.20
2022-12-01T11:05:02.509Z,6.00
2022-12-01T11:07:32.451Z,6.00
2022-12-01T11:10:32.899Z,5.90
2022-12-01T11:13:22.203Z,6.00
2022-12-01T11:16:00.551Z,6.10
2022-12-01T11:18:39.771Z,6.20
2022-12-01T11:21:16.866Z,6.30
2022-12-01T11:23:52.342Z,6.20
2022-12-01T11:26:25.235Z,6.00
2022-12-01T11:29:07.925Z,5.90
2022-12-01T11:31:49.770Z,5.90
2022-12-01T11:34:26.048Z,5.80
2022-12-01T11:37:06.618Z,5.80
2022-12-01T11:39:39.490Z,5.90
2022-12-01T11:42:12.365Z,5.90
2022-12-01T11:44:53.257Z,6.00
2022-12-01T11:47:24.829Z,5.90
2022-12-01T11:50:18.213Z,5.80
2022-12-01T11:52:48.340Z,6.00
2022-12-01T11:55:26.927Z,5.90
2022-12-01T11:57:58.005Z,5.90
2022-12-01T12:00:29.060Z,6.00
2022-12-01T12:03:25.615Z,6.00
2022-12-01T12:06:40.258Z,6.00
2022-12-01T12:09:28.363Z,6.00
2022-12-01T12:12:11.318Z,6.00
2022-12-01T12:15:28.699Z,6.00
2022-12-01T12:18:21.855Z,5.90
2022-12-01T12:21:27.772Z,6.00
2022-12-01T12:24:26.159Z,5.90
2022-12-01T12:27:28.793Z,5.90
2022-12-01T12:51:19.648Z,5.90
2022-12-01T12:54:08.660Z,6.00
2022-12-01T12:56:36.730Z,6.00
2022-12-01T12:59:11.659Z,5.90
2022-12-01T13:02:36.977Z,6.00
2022-12-01T13:05:25.360Z,6.00
2022-12-01T13:08:16.835Z,5.90
2022-12-01T13:11:23.204Z,5.80
2022-12-01T13:20:08.114Z,5.80
2022-12-01T13:22:36.589Z,5.80
2022-12-01T13:25:04.839Z,5.80
2022-12-01T13:27:38.767Z,5.80
2022-12-01T13:30:19.813Z,5.80
2022-12-01T13:32:48.041Z,5.80
2022-12-01T13:35:37.070Z,5.80
2022-12-01T13:41:29.622Z,5.80
2022-12-01T13:43:58.295Z,5.80
2022-12-01T13:46:32.810Z,5.80
2022-12-01T13:49:04.368Z,5.80
2022-12-01T13:52:09.907Z,5.80
2022-12-01T13:54:37.847Z,5.80
2022-12-01T13:57:14.051Z,5.80
2022-12-01T14:00:06.957Z,5.70
2022-12-01T14:02:35.654Z,5.80
2022-12-01T14:05:39.799Z,5.80
2022-12-01T14:08:30.865Z,5.80
2022-12-01T14:11:36.289Z,5.80
2022-12-01T14:14:24.371Z,5.70
2022-12-01T14:17:02.649Z,5.70
2022-12-01T14:19:42.182Z,5.60
2022-12-01T14:22:39.319Z,5.60
2022-12-01T14:25:32.753Z,5.50
2022-12-01T14:28:02.647Z,5.50
2022-12-01T14:30:42.313Z,5.50
2022-12-01T14:33:48.102Z,5.50
2022-12-01T14:36:38.102Z,5.40
2022-12-01T14:39:13.160Z,5.40
2022-12-01T14:42:10.821Z,5.40
2022-12-01T14:44:54.365Z,5.40
2022-12-01T14:47:30.103Z,5.30
2022-12-01T14:50:02.852Z,5.40
2022-12-01T14:52:38.425Z,5.40
2022-12-01T14:55:16.747Z,5.30
2022-12-01T14:57:53.148Z,5.30
2022-12-01T15:00:23.923Z,5.20
2022-12-01T15:03:01.472Z,5.20
2022-12-01T15:05:31.042Z,5.20
2022-12-01T15:08:18.539Z,5.10
2022-12-01T15:10:55.222Z,5.10
2022-12-01T15:13:30.628Z,5.10
2022-12-01T15:16:05.948Z,5.10
2022-12-01T15:18:35.442Z,5.00
2022-12-01T15:21:33.869Z,5.00
2022-12-01T15:24:22.227Z,5.00
2022-12-01T15:27:03.280Z,4.90
2022-12-01T15:29:33.115Z,4.90
2022-12-01T15:32:02.685Z,4.90
2022-12-01T15:34:33.669Z,4.90
2022-12-01T15:37:04.914Z,4.80
2022-12-01T15:40:11.988Z,4.80
2022-12-01T15:42:44.001Z,4.80
2022-12-01T15:45:22.596Z,4.80
2022-12-01T15:47:51.814Z,4.80
2022-12-01T15:50:44.540Z,4.70
2022-12-01T15:53:32.959Z,4.70
2022-12-01T15:56:02.176Z,4.70
2022-12-01T15:58:33.151Z,4.70
2022-12-01T16:01:10.593Z,4.60
2022-12-01T16:03:58.486Z,4.60
2022-12-01T16:06:29.183Z,4.60
2022-12-01T16:09:31.464Z,4.60
2022-12-01T16:12:22.794Z,4.50
2022-12-01T16:15:22.835Z,4.50
2022-12-01T16:17:52.636Z,4.50
2022-12-01T16:20:39.795Z,4.40
2022-12-01T16:23:15.533Z,4.40
2022-12-01T16:25:46.227Z,4.50
2022-12-01T16:28:32.014Z,4.40
2022-12-01T16:30:59.296Z,4.40
2022-12-01T16:33:28.107Z,4.40
2022-12-01T16:35:55.661Z,4.30
2022-12-01T16:38:25.140Z,4.30
2022-12-01T16:40:54.788Z,4.20
2022-12-01T16:43:24.118Z,4.20
2022-12-01T16:45:58.256Z,4.20
2022-12-01T16:48:25.363Z,4.20
2022-12-01T16:50:53.362Z,4.10
2022-12-01T16:53:20.398Z,4.10
2022-12-01T16:55:58.320Z,4.10
2022-12-01T16:58:25.475Z,4.10
2022-12-01T17:00:52.858Z,4.10
2022-12-01T17:03:22.428Z,4.00
2022-12-01T17:05:49.734Z,4.00
2022-12-01T17:08:17.587Z,4.00
2022-12-01T17:10:47.331Z,4.00
2022-12-01T17:13:14.563Z,4.00
2022-12-01T17:15:46.230Z,4.00
2022-12-01T17:18:14.969Z,3.90
2022-12-01T17:20:42.290Z,3.90
2022-12-01T17:23:09.249Z,3.90
2022-12-01T17:25:41.620Z,3.80
2022-12-01T17:28:08.518Z,3.90
2022-12-01T17:30:38.540Z,3.90
2022-12-01T17:33:05.810Z,3.90
2022-12-01T17:35:32.683Z,3.90
2022-12-01T17:37:59.781Z,3.90
2022-12-01T17:40:26.927Z,3.90
2022-12-01T17:42:53.870Z,3.90
2022-12-01T17:45:21.157Z,3.90
2022-12-01T17:47:48.170Z,3.90
2022-12-01T17:50:15.430Z,3.90
2022-12-01T17:52:42.503Z,4.00
2022-12-01T17:55:09.958Z,3.90
2022-12-01T17:57:38.488Z,3.90
2022-12-01T18:00:06.954Z,3.90
2022-12-01T18:02:34.140Z,3.90
2022-12-01T18:05:02.132Z,3.90
2022-12-01T18:07:34.947Z,3.90
2022-12-01T18:10:01.975Z,3.80
2022-12-01T18:12:28.955Z,3.90
2022-12-01T18:14:55.878Z,3.80
2022-12-01T18:17:22.783Z,3.80
2022-12-01T18:19:49.654Z,3.80
2022-12-01T18:22:16.581Z,3.80
2022-12-01T18:24:43.476Z,3.80
2022-12-01T18:27:10.339Z,3.80
2022-12-01T18:29:37.370Z,3.80
2022-12-01T18:32:06.921Z,3.90
2022-12-01T18:34:34.281Z,3.90
2022-12-01T18:37:06.026Z,3.90
2022-12-01T18:39:34.486Z,3.90
2022-12-01T18:42:02.785Z,3.90
2022-12-01T18:44:31.114Z,3.80
2022-12-01T18:46:59.212Z,3.90
2022-12-01T18:49:26.214Z,3.90
2022-12-01T18:51:54.347Z,3.80
2022-12-01T18:54:21.474Z,3.90
2022-12-01T18:56:52.826Z,3.80
2022-12-01T18:59:20.123Z,3.80
2022-12-01T19:01:48.609Z,3.80
2022-12-01T19:04:16.809Z,3.80
2022-12-01T19:06:45.787Z,3.80
2022-12-01T19:09:15.731Z,3.80
2022-12-01T19:11:43.946Z,3.80
2022-12-01T19:14:17.238Z,3.80
2022-12-01T19:16:47.468Z,3.80
2022-12-01T19:19:15.161Z,3.80
2022-12-01T19:21:43.014Z,3.80
2022-12-01T19:24:10.050Z,3.80
2022-12-01T19:26:38.109Z,3.80
2022-12-01T19:29:05.254Z,3.90
2022-12-01T19:31:35.223Z,3.90
2022-12-01T19:34:05.226Z,3.80
2022-12-01T19:36:33.800Z,3.80
2022-12-01T19:39:04.466Z,3.80
2022-12-01T19:41:34.917Z,3.80
2022-12-01T19:44:03.809Z,3.80
2022-12-01T19:46:30.963Z,3.80
2022-12-01T19:49:03.342Z,3.80
2022-12-01T19:51:36.223Z,3.80
2022-12-01T19:54:08.741Z,3.80
2022-12-01T19:56:35.860Z,3.80
2022-12-01T19:59:02.932Z,3.80
2022-12-01T20:01:30.325Z,3.80
2022-12-01T20:03:57.440Z,3.80
2022-12-01T20:06:28.161Z,3.70
2022-12-01T20:08:58.681Z,3.70
2022-12-01T20:11:27.180Z,3.70
2022-12-01T20:13:55.164Z,3.70
2022-12-01T20:16:24.967Z,3.70
2022-12-01T20:18:57.123Z,3.70
2022-12-01T20:21:28.639Z,3.70
2022-12-01T20:24:01.176Z,3.70
2022-12-01T20:26:35.559Z,3.70
2022-12-01T20:29:10.146Z,3.70
2022-12-01T20:31:46.145Z,3.70
2022-12-01T20:34:21.406Z,3.60
2022-12-01T20:36:49.045Z,3.60
2022-12-01T20:39:16.691Z,3.60
2022-12-01T20:41:45.295Z,3.50
2022-12-01T20:44:13.956Z,3.50
2022-12-01T20:46:41.962Z,3.40
2022-12-01T20:49:09.612Z,3.40
2022-12-01T20:51:39.849Z,3.40
2022-12-01T20:54:28.676Z,3.30
2022-12-01T20:56:57.398Z,3.30
2022-12-01T20:59:24.622Z,3.30
2022-12-01T21:01:51.681Z,3.30
2022-12-01T21:04:18.967Z,3.20
2022-12-01T21:06:46.692Z,3.30
2022-12-01T21:09:15.574Z,3.20
2022-12-01T21:12:21.552Z,3.20
2022-12-01T21:14:58.087Z,3.20
2022-12-01T21:17:47.349Z,3.20
2022-12-01T21:20:37.398Z,3.20
2022-12-01T21:23:17.021Z,3.20
2022-12-01T21:25:44.950Z,3.20
2022-12-01T21:28:22.470Z,3.20
2022-12-01T21:30:57.422Z,3.20
2022-12-01T21:33:36.559Z,3.20
2022-12-01T21:36:16.476Z,3.20
2022-12-01T21:38:44.325Z,3.20
2022-12-01T21:41:31.835Z,3.10
2022-12-01T21:44:11.339Z,3.20
2022-12-01T21:46:41.545Z,3.20
2022-12-01T21:49:28.844Z,3.20
2022-12-01T21:51:55.852Z,3.20
2022-12-01T21:54:24.109Z,3.20
2022-12-01T21:57:00.175Z,3.20
2022-12-01T21:59:28.290Z,3.20
2022-12-01T22:01:57.121Z,3.20
2022-12-01T22:04:30.430Z,3.20
2022-12-01T22:06:58.902Z,3.20
2022-12-01T22:09:29.579Z,3.20
2022-12-01T22:12:00.050Z,3.20
2022-12-01T22:14:35.148Z,3.20
2022-12-01T22:17:24.011Z,3.20
2022-12-01T22:20:02.550Z,3.30
2022-12-01T22:22:30.875Z,3.30
2022-12-01T22:25:19.125Z,3.30
2022-12-01T22:27:46.083Z,3.30
2022-12-01T22:30:21.715Z,3.30
2022-12-01T22:32:52.264Z,3.30
2022-12-01T22:35:42.481Z,3.30
2022-12-01T22:38:38.490Z,3.30
2022-12-01T22:41:16.650Z,3.30
2022-12-01T22:44:05.297Z,3.20
2022-12-01T22:46:34.585Z,3.20
2022-12-01T22:49:22.247Z,3.20
2022-12-01T22:51:51.018Z,3.20
2022-12-01T22:54:29.783Z,3.20
2022-12-01T22:57:11.515Z,3.20
2022-12-01T22:59:42.785Z,3.10
2022-12-01T23:02:21.962Z,3.10
2022-12-01T23:04:59.972Z,3.10
2022-12-01T23:07:43.040Z,3.10
2022-12-01T23:10:17.958Z,3.10
2022-12-01T23:12:46.820Z,3.00
2022-12-01T23:15:46.310Z,3.00
2022-12-01T23:18:22.494Z,3.00
2022-12-01T23:20:54.539Z,3.00
2022-12-01T23:23:31.057Z,3.00
2022-12-01T23:26:00.941Z,3.00
2022-12-01T23:28:30.504Z,3.00
2022-12-01T23:30:59.889Z,3.00
2022-12-01T23:33:29.780Z,3.00
2022-12-01T23:36:24.900Z,2.90
2022-12-01T23:39:04.748Z,2.90
2022-12-01T23:41:39.852Z,2.90
2022-12-01T23:44:21.683Z,2.90
2022-12-01T23:46:52.956Z,2.90
2022-12-01T23:49:24.428Z,2.90
2022-12-01T23:51:54.953Z,2.90
2022-12-01T23:54:25.467Z,2.90
2022-12-01T23:56:54.907Z,2.90
2022-12-01T23:59:22.717Z,2.90
